createdAt,value
2023-02-18T00:00:11.857Z,0
2023-02-18T00:01:11.876Z,0
2023-02-18T00:02:11.888Z,0
2023-02-18T00:03:11.896Z,0
2023-02-18T00:04:11.880Z,0
2023-02-18T00:05:11.856Z,0
2023-02-18T00:06:11.863Z,0
2023-02-18T00:07:11.876Z,0
2023-02-18T00:08:11.866Z,0
2023-02-18T00:09:11.862Z,0
2023-02-18T00:10:11.859Z,0
2023-02-18T00:11:11.876Z,0
2023-02-18T00:12:11.871Z,0
2023-02-18T00:13:11.864Z,0
2023-02-18T00:14:11.876Z,0
2023-02-18T00:15:11.878Z,0
2023-02-18T00:16:12.038Z,0
2023-02-18T00:17:11.869Z,0
2023-02-18T00:18:11.880Z,0
2023-02-18T00:19:11.901Z,0
2023-02-18T00:20:11.873Z,0
2023-02-18T00:21:11.878Z,0
2023-02-18T00:22:11.868Z,0
2023-02-18T00:23:11.873Z,0
2023-02-18T00:24:11.882Z,0
2023-02-18T00:25:11.868Z,0
2023-02-18T00:26:11.876Z,0
2023-02-18T00:27:11.890Z,0
2023-02-18T00:28:11.877Z,0
2023-02-18T00:29:11.880Z,0
2023-02-18T00:30:11.978Z,0
2023-02-18T00:31:12.010Z,0
2023-02-18T00:32:11.933Z,0
2023-02-18T00:33:11.886Z,0
2023-02-18T00:34:11.890Z,0
2023-02-18T00:35:11.914Z,0
2023-02-18T00:36:11.887Z,0
2023-02-18T00:37:11.881Z,0
2023-02-18T00:38:11.887Z,0
2023-02-18T00:39:11.900Z,0
2023-02-18T00:40:11.881Z,0
2023-02-18T00:41:11.893Z,0
2023-02-18T00:42:11.892Z,0
2023-02-18T00:43:11.896Z,0
2023-02-18T00:44:11.895Z,0
2023-02-18T00:45:11.884Z,0
2023-02-18T00:46:11.916Z,0
2023-02-18T00:47:11.901Z,0
2023-02-18T00:48:11.893Z,0
2023-02-18T00:49:11.917Z,0
2023-02-18T00:50:11.890Z,0
2023-02-18T00:51:11.912Z,0
2023-02-18T00:52:11.891Z,0
2023-02-18T00:53:11.900Z,0
2023-02-18T00:54:11.891Z,0
2023-02-18T00:55:11.886Z,0
2023-02-18T00:56:11.891Z,0
2023-02-18T00:57:11.893Z,0
2023-02-18T00:58:11.897Z,0
2023-02-18T00:59:11.898Z,0
2023-02-18T01:00:11.911Z,0
2023-02-18T01:01:11.906Z,0
2023-02-18T01:02:11.892Z,0
2023-02-18T01:03:11.900Z,0
2023-02-18T01:04:11.898Z,0
2023-02-18T01:05:11.884Z,0
2023-02-18T01:06:11.901Z,0
2023-02-18T01:07:11.923Z,0
2023-02-18T01:08:11.908Z,0
2023-02-18T01:09:11.905Z,0
2023-02-18T01:10:11.910Z,0
2023-02-18T01:11:11.916Z,0
2023-02-18T01:12:11.910Z,0
2023-02-18T01:13:11.900Z,0
2023-02-18T01:14:11.919Z,0
2023-02-18T01:15:11.894Z,0
2023-02-18T01:16:12.139Z,0
2023-02-18T01:17:11.894Z,0
2023-02-18T01:18:11.901Z,0
2023-02-18T01:19:11.913Z,0
2023-02-18T01:20:11.937Z,3.2
2023-02-18T01:21:11.910Z,0.9
2023-02-18T01:22:11.910Z,0
2023-02-18T01:23:12.343Z,0
2023-02-18T01:24:11.905Z,0
2023-02-18T01:25:11.928Z,0
2023-02-18T01:26:11.916Z,0
2023-02-18T01:27:11.919Z,0
2023-02-18T01:28:11.916Z,0
2023-02-18T01:29:11.918Z,0
2023-02-18T01:30:11.952Z,0
2023-02-18T01:31:12.212Z,0
2023-02-18T01:32:12.014Z,0
2023-02-18T01:33:11.924Z,0
2023-02-18T01:34:11.924Z,0
2023-02-18T01:35:11.921Z,0
2023-02-18T01:36:12.116Z,0
2023-02-18T01:37:11.911Z,0
2023-02-18T01:38:11.920Z,0
2023-02-18T01:39:11.943Z,0
2023-02-18T01:40:11.917Z,0
2023-02-18T01:41:11.911Z,0
2023-02-18T01:42:11.913Z,0
2023-02-18T01:43:11.911Z,0
2023-02-18T01:44:11.920Z,0
2023-02-18T01:45:11.909Z,0
2023-02-18T01:46:11.984Z,0
2023-02-18T01:47:11.912Z,0
2023-02-18T01:48:11.915Z,0
2023-02-18T01:49:11.917Z,0
2023-02-18T01:50:11.907Z,0
2023-02-18T01:51:11.923Z,0
2023-02-18T01:52:11.912Z,0
2023-02-18T01:53:11.937Z,0
2023-02-18T01:54:11.917Z,0
2023-02-18T01:55:11.942Z,0
2023-02-18T01:56:11.914Z,0
2023-02-18T01:57:11.911Z,0
2023-02-18T01:58:11.930Z,0
2023-02-18T01:59:11.918Z,0
2023-02-18T02:00:11.905Z,0
2023-02-18T02:01:12.006Z,0
2023-02-18T02:02:11.974Z,0
2023-02-18T02:03:11.913Z,0
2023-02-18T02:04:11.919Z,0
2023-02-18T02:05:11.905Z,0
2023-02-18T02:06:11.926Z,0
2023-02-18T02:07:11.930Z,0
2023-02-18T02:08:11.922Z,0
2023-02-18T02:09:11.921Z,0
2023-02-18T02:10:11.937Z,0
2023-02-18T02:11:11.933Z,0
2023-02-18T02:12:11.912Z,0
2023-02-18T02:13:11.914Z,0
2023-02-18T02:14:11.911Z,0
2023-02-18T02:15:11.913Z,0
2023-02-18T02:16:11.977Z,0
2023-02-18T02:17:11.908Z,0
2023-02-18T02:18:11.928Z,0
2023-02-18T02:19:11.915Z,0
2023-02-18T02:20:11.910Z,0
2023-02-18T02:21:11.921Z,0
2023-02-18T02:22:11.914Z,0
2023-02-18T02:23:11.920Z,0
2023-02-18T02:24:11.924Z,0
2023-02-18T02:25:11.917Z,0
2023-02-18T02:26:11.925Z,0
2023-02-18T02:27:11.943Z,0
2023-02-18T02:28:11.919Z,0
2023-02-18T02:29:11.928Z,0
2023-02-18T02:30:11.957Z,0
2023-02-18T02:31:12.034Z,0
2023-02-18T02:32:11.945Z,0
2023-02-18T02:33:11.924Z,0
2023-02-18T02:34:11.940Z,0
2023-02-18T02:35:11.924Z,0
2023-02-18T02:36:11.928Z,0
2023-02-18T02:37:11.936Z,0
2023-02-18T02:38:11.931Z,0
2023-02-18T02:39:11.931Z,0
2023-02-18T02:40:11.942Z,0
2023-02-18T02:41:11.932Z,0
2023-02-18T02:42:11.937Z,0
2023-02-18T02:43:11.954Z,0
2023-02-18T02:44:11.936Z,0
2023-02-18T02:45:11.948Z,0
2023-02-18T02:46:12.285Z,0
2023-02-18T02:47:11.942Z,0
2023-02-18T02:48:11.945Z,0
2023-02-18T02:49:11.948Z,0
2023-02-18T02:50:11.952Z,0
2023-02-18T02:51:11.979Z,0
2023-02-18T02:52:11.946Z,0
2023-02-18T02:53:11.946Z,0
2023-02-18T02:54:11.950Z,0
2023-02-18T02:55:11.954Z,0
2023-02-18T02:56:11.947Z,0
2023-02-18T02:57:11.964Z,0
2023-02-18T02:58:11.952Z,0
2023-02-18T02:59:11.983Z,0
2023-02-18T03:00:11.943Z,0
2023-02-18T03:01:12.003Z,0
2023-02-18T03:02:11.959Z,0
2023-02-18T03:03:12.026Z,0
2023-02-18T03:04:11.966Z,0
2023-02-18T03:05:11.967Z,0
2023-02-18T03:06:11.953Z,0
2023-02-18T03:07:11.956Z,0
2023-02-18T03:08:11.960Z,0
2023-02-18T03:09:11.954Z,0
2023-02-18T03:10:11.967Z,0
2023-02-18T03:11:11.975Z,0
2023-02-18T03:12:11.970Z,0
2023-02-18T03:13:11.977Z,0
2023-02-18T03:14:11.978Z,0
2023-02-18T03:15:11.988Z,0
2023-02-18T03:16:12.138Z,0
2023-02-18T03:17:11.968Z,0
2023-02-18T03:18:11.985Z,0
2023-02-18T03:19:11.979Z,0
2023-02-18T03:20:11.976Z,0
2023-02-18T03:21:11.976Z,0
2023-02-18T03:22:11.975Z,0
2023-02-18T03:23:11.989Z,0
2023-02-18T03:24:11.997Z,0
2023-02-18T03:25:11.989Z,0
2023-02-18T03:26:11.992Z,0
2023-02-18T03:27:11.983Z,0
2023-02-18T03:28:11.970Z,0
2023-02-18T03:29:11.978Z,0
2023-02-18T03:30:12.041Z,0
2023-02-18T03:31:12.043Z,0
2023-02-18T03:32:12.064Z,0
2023-02-18T03:33:11.988Z,0
2023-02-18T03:34:12.007Z,0
2023-02-18T03:35:12.001Z,0
2023-02-18T03:36:11.995Z,0
2023-02-18T03:37:11.996Z,0
2023-02-18T03:38:11.998Z,0
2023-02-18T03:39:11.996Z,0
2023-02-18T03:40:12.001Z,0
2023-02-18T03:41:11.988Z,0
2023-02-18T03:42:11.990Z,0
2023-02-18T03:43:11.996Z,0
2023-02-18T03:44:12.016Z,0
2023-02-18T03:45:11.995Z,0
2023-02-18T03:46:12.287Z,0
2023-02-18T03:47:12.080Z,0
2023-02-18T03:48:12.019Z,0
2023-02-18T03:49:12.013Z,0
2023-02-18T03:50:12.026Z,0
2023-02-18T03:51:12.014Z,0
2023-02-18T03:52:12.020Z,0
2023-02-18T03:53:12.017Z,0
2023-02-18T03:54:12.014Z,0
2023-02-18T03:55:12.032Z,0
2023-02-18T03:56:12.002Z,0
2023-02-18T03:57:12.004Z,0
2023-02-18T03:58:12.005Z,0
2023-02-18T03:59:12.057Z,0
2023-02-18T04:00:12.010Z,0
2023-02-18T04:01:12.109Z,0
2023-02-18T04:02:12.013Z,0
2023-02-18T04:03:12.042Z,0
2023-02-18T04:04:12.046Z,0
2023-02-18T04:05:12.013Z,0
2023-02-18T04:06:12.023Z,0
2023-02-18T04:07:12.016Z,0
2023-02-18T04:08:12.014Z,0
2023-02-18T04:09:12.011Z,0
2023-02-18T04:10:12.030Z,0
2023-02-18T04:11:12.029Z,0
2023-02-18T04:12:12.025Z,0
2023-02-18T04:13:12.010Z,0
2023-02-18T04:14:12.017Z,0
2023-02-18T04:15:12.027Z,0
2023-02-18T04:16:12.041Z,0
2023-02-18T04:17:12.024Z,0
2023-02-18T04:18:12.075Z,0
2023-02-18T04:19:12.057Z,0
2023-02-18T04:20:12.017Z,0
2023-02-18T04:21:12.025Z,0
2023-02-18T04:22:12.022Z,0
2023-02-18T04:23:12.025Z,0
2023-02-18T04:24:12.024Z,0
2023-02-18T04:25:12.027Z,0
2023-02-18T04:26:12.017Z,0
2023-02-18T04:27:12.036Z,0
2023-02-18T04:28:12.025Z,0
2023-02-18T04:29:12.023Z,0
2023-02-18T04:30:12.053Z,0
2023-02-18T04:31:12.121Z,0
2023-02-18T04:32:12.037Z,0
2023-02-18T04:33:12.038Z,0
2023-02-18T04:34:12.032Z,0
2023-02-18T04:35:12.072Z,0
2023-02-18T04:36:12.019Z,0
2023-02-18T04:37:12.034Z,0
2023-02-18T04:38:12.025Z,0
2023-02-18T04:39:12.031Z,0
2023-02-18T04:40:12.038Z,0
2023-02-18T04:41:12.028Z,0
2023-02-18T04:42:12.034Z,0
2023-02-18T04:43:12.033Z,0
2023-02-18T04:44:12.034Z,0
2023-02-18T04:45:12.049Z,0
2023-02-18T04:46:12.177Z,0
2023-02-18T04:47:12.043Z,0
2023-02-18T04:48:12.052Z,0
2023-02-18T04:49:12.036Z,0
2023-02-18T04:50:12.048Z,0
2023-02-18T04:51:12.075Z,0
2023-02-18T04:52:12.039Z,0
2023-02-18T04:53:12.044Z,0
2023-02-18T04:54:12.049Z,0
2023-02-18T04:55:12.048Z,0
2023-02-18T04:56:12.047Z,0
2023-02-18T04:57:12.038Z,0
2023-02-18T04:58:12.043Z,0
2023-02-18T04:59:12.042Z,0
2023-02-18T05:00:12.038Z,0
2023-02-18T05:01:12.062Z,0
2023-02-18T05:02:12.047Z,0
2023-02-18T05:03:12.054Z,0
2023-02-18T05:04:12.097Z,0
2023-02-18T05:05:12.076Z,0
2023-02-18T05:06:12.057Z,0
2023-02-18T05:07:12.081Z,0
2023-02-18T05:08:12.054Z,0
2023-02-18T05:09:12.053Z,0
2023-02-18T05:10:12.057Z,0
2023-02-18T05:11:12.056Z,0
2023-02-18T05:12:12.048Z,0
2023-02-18T05:13:12.062Z,0
2023-02-18T05:14:12.055Z,0
2023-02-18T05:15:12.059Z,0
2023-02-18T05:16:12.433Z,0
2023-02-18T05:17:12.068Z,0
2023-02-18T05:18:12.076Z,0
2023-02-18T05:19:12.054Z,0
2023-02-18T05:20:12.065Z,0
2023-02-18T05:21:12.066Z,0
2023-02-18T05:22:12.058Z,0
2023-02-18T05:23:12.100Z,0
2023-02-18T05:24:12.063Z,0
2023-02-18T05:25:12.089Z,0
2023-02-18T05:26:12.076Z,0
2023-02-18T05:27:12.075Z,0
2023-02-18T05:28:12.093Z,0
2023-02-18T05:29:12.071Z,0
2023-02-18T05:30:12.100Z,0
2023-02-18T05:31:12.208Z,0
2023-02-18T05:32:12.071Z,0
2023-02-18T05:33:12.087Z,0
2023-02-18T05:34:12.065Z,0
2023-02-18T05:35:12.093Z,0
2023-02-18T05:36:12.072Z,0
2023-02-18T05:37:12.068Z,0
2023-02-18T05:38:12.078Z,0
2023-02-18T05:39:12.090Z,0
2023-02-18T05:40:12.077Z,0
2023-02-18T05:41:12.086Z,0
2023-02-18T05:42:12.083Z,0
2023-02-18T05:43:12.068Z,0
2023-02-18T05:44:12.066Z,0
2023-02-18T05:45:12.072Z,0
2023-02-18T05:46:12.085Z,0
2023-02-18T05:47:12.075Z,0
2023-02-18T05:48:12.077Z,0
2023-02-18T05:49:12.073Z,0
2023-02-18T05:50:12.081Z,0
2023-02-18T05:51:12.070Z,0
2023-02-18T05:52:12.069Z,0
2023-02-18T05:53:12.069Z,0
2023-02-18T05:54:12.074Z,0
2023-02-18T05:55:12.123Z,0
2023-02-18T05:56:12.079Z,0
2023-02-18T05:57:12.075Z,0
2023-02-18T05:58:12.080Z,0
2023-02-18T05:59:12.075Z,0
2023-02-18T06:00:12.090Z,0
2023-02-18T06:01:12.067Z,0
2023-02-18T06:02:12.086Z,0
2023-02-18T06:03:12.072Z,0
2023-02-18T06:04:12.080Z,0
2023-02-18T06:05:12.108Z,0
2023-02-18T06:06:12.314Z,0
2023-02-18T06:07:12.092Z,0
2023-02-18T06:08:12.084Z,0
2023-02-18T06:09:12.114Z,0
2023-02-18T06:10:12.084Z,0
2023-02-18T06:11:12.109Z,0
2023-02-18T06:12:12.076Z,0
2023-02-18T06:13:12.084Z,0
2023-02-18T06:14:12.094Z,0
2023-02-18T06:15:12.092Z,0
2023-02-18T06:16:12.284Z,0
2023-02-18T06:17:12.089Z,0
2023-02-18T06:18:12.085Z,0
2023-02-18T06:19:12.089Z,0
2023-02-18T06:20:12.093Z,0
2023-02-18T06:21:12.080Z,0
2023-02-18T06:22:12.085Z,0
2023-02-18T06:23:12.092Z,0
2023-02-18T06:24:12.084Z,0
2023-02-18T06:25:12.094Z,0
2023-02-18T06:26:12.089Z,0
2023-02-18T06:27:12.513Z,0
2023-02-18T06:28:12.091Z,0
2023-02-18T06:29:12.086Z,0
2023-02-18T06:30:12.123Z,0
2023-02-18T06:31:12.213Z,0
2023-02-18T06:32:12.209Z,0
2023-02-18T06:33:12.083Z,0
2023-02-18T06:34:12.090Z,0
2023-02-18T06:35:12.114Z,0
2023-02-18T06:36:12.340Z,0
2023-02-18T06:37:12.098Z,0
2023-02-18T06:38:12.089Z,0
2023-02-18T06:39:12.086Z,0
2023-02-18T06:40:12.095Z,0
2023-02-18T06:41:12.095Z,0
2023-02-18T06:42:12.096Z,0
2023-02-18T06:43:12.132Z,0
2023-02-18T06:44:12.098Z,0
2023-02-18T06:45:12.131Z,0
2023-02-18T06:46:12.217Z,0
2023-02-18T06:47:12.114Z,0
2023-02-18T06:48:12.102Z,0
2023-02-18T06:49:12.107Z,0
2023-02-18T06:50:12.104Z,0
2023-02-18T06:51:12.113Z,0
2023-02-18T06:52:12.106Z,0
2023-02-18T06:53:12.100Z,0
2023-02-18T06:54:12.097Z,0
2023-02-18T06:55:12.113Z,0
2023-02-18T06:56:12.104Z,0
2023-02-18T06:57:12.117Z,0
2023-02-18T06:58:12.100Z,0
2023-02-18T06:59:12.140Z,0
2023-02-18T07:00:12.097Z,0
2023-02-18T07:01:12.169Z,0
2023-02-18T07:02:12.099Z,0
2023-02-18T07:03:12.111Z,0
2023-02-18T07:04:12.112Z,0
2023-02-18T07:05:12.104Z,0
2023-02-18T07:06:12.159Z,0
2023-02-18T07:07:12.112Z,0
2023-02-18T07:08:12.132Z,0
2023-02-18T07:09:12.107Z,0
2023-02-18T07:10:12.104Z,0
2023-02-18T07:11:12.106Z,0
2023-02-18T07:12:12.109Z,0
2023-02-18T07:13:12.114Z,0
2023-02-18T07:14:12.111Z,0
2023-02-18T07:15:12.139Z,0
2023-02-18T07:16:12.374Z,0
2023-02-18T07:17:12.115Z,0
2023-02-18T07:18:12.141Z,0
2023-02-18T07:19:13.657Z,0
2023-02-18T07:20:12.122Z,0
2023-02-18T07:21:12.128Z,0
2023-02-18T07:22:12.125Z,0
2023-02-18T07:23:12.129Z,0
2023-02-18T07:24:12.137Z,0
2023-02-18T07:25:12.121Z,0
2023-02-18T07:26:12.133Z,0
2023-02-18T07:27:12.125Z,0
2023-02-18T07:28:12.126Z,0
2023-02-18T07:29:12.131Z,0
2023-02-18T07:30:12.194Z,0
2023-02-18T07:31:12.274Z,0
2023-02-18T07:32:12.192Z,0
2023-02-18T07:33:12.130Z,0
2023-02-18T07:34:12.132Z,0
2023-02-18T07:35:12.148Z,0
2023-02-18T07:36:12.139Z,0
2023-02-18T07:37:12.133Z,0
2023-02-18T07:38:12.134Z,0
2023-02-18T07:39:12.128Z,0
2023-02-18T07:40:12.148Z,0
2023-02-18T07:41:12.127Z,0
2023-02-18T07:42:12.145Z,0
2023-02-18T07:43:12.146Z,0
2023-02-18T07:44:12.137Z,0
2023-02-18T07:45:12.143Z,0
2023-02-18T07:46:12.455Z,0
2023-02-18T07:47:12.177Z,0
2023-02-18T07:48:12.159Z,0
2023-02-18T07:49:12.154Z,0
2023-02-18T07:50:12.159Z,0
2023-02-18T07:51:12.152Z,0
2023-02-18T07:52:12.193Z,0
2023-02-18T07:53:12.136Z,0
2023-02-18T07:54:12.145Z,0
2023-02-18T07:55:12.159Z,0
2023-02-18T07:56:12.148Z,0
2023-02-18T07:57:12.190Z,0
2023-02-18T07:58:12.148Z,0
2023-02-18T07:59:12.154Z,0
2023-02-18T08:00:12.148Z,0
2023-02-18T08:01:12.172Z,0
2023-02-18T08:02:12.162Z,0
2023-02-18T08:03:12.169Z,0
2023-02-18T08:04:12.192Z,0
2023-02-18T08:05:12.157Z,0
2023-02-18T08:06:12.164Z,0
2023-02-18T08:07:12.161Z,0
2023-02-18T08:08:12.173Z,0
2023-02-18T08:09:12.158Z,0
2023-02-18T08:10:12.183Z,0
2023-02-18T08:11:18.718Z,0
2023-02-18T08:12:12.172Z,0
2023-02-18T08:13:12.171Z,0
2023-02-18T08:14:12.173Z,0
2023-02-18T08:15:12.188Z,0
2023-02-18T08:16:12.223Z,0
2023-02-18T08:17:12.189Z,0
2023-02-18T08:18:12.184Z,0
2023-02-18T08:19:12.203Z,0
2023-02-18T08:20:12.188Z,0
2023-02-18T08:21:12.184Z,0
2023-02-18T08:22:12.176Z,0
2023-02-18T08:23:12.179Z,0
2023-02-18T08:24:12.180Z,0
2023-02-18T08:25:24.072Z,0
2023-02-18T08:26:12.177Z,0
2023-02-18T08:27:12.178Z,0
2023-02-18T08:28:12.176Z,0
2023-02-18T08:29:12.190Z,0
2023-02-18T08:30:12.216Z,0
2023-02-18T08:31:12.316Z,0
2023-02-18T08:32:12.213Z,0
2023-02-18T08:33:12.181Z,0
2023-02-18T08:34:12.182Z,0
2023-02-18T08:35:12.224Z,0
2023-02-18T08:36:12.195Z,0
2023-02-18T08:37:12.191Z,0
2023-02-18T08:38:12.191Z,0
2023-02-18T08:39:12.201Z,0
2023-02-18T08:40:12.188Z,0
2023-02-18T08:41:12.201Z,0
2023-02-18T08:42:12.200Z,0
2023-02-18T08:43:12.196Z,0
2023-02-18T08:44:12.205Z,0
2023-02-18T08:45:12.183Z,0
2023-02-18T08:46:15.108Z,0
2023-02-18T08:48:13.831Z,0
2023-02-18T08:48:13.899Z,0
2023-02-18T08:49:12.199Z,0
2023-02-18T08:50:12.201Z,0
2023-02-18T08:51:12.637Z,0
2023-02-18T08:52:12.216Z,0
2023-02-18T08:53:12.215Z,0
2023-02-18T08:54:12.213Z,0
2023-02-18T08:55:12.212Z,0
2023-02-18T08:56:12.217Z,0
2023-02-18T08:57:12.208Z,0
2023-02-18T08:58:12.213Z,0
2023-02-18T08:59:12.201Z,0
2023-02-18T09:00:13.975Z,0
2023-02-18T09:01:12.240Z,0
2023-02-18T09:02:12.213Z,0
2023-02-18T09:03:12.207Z,0
2023-02-18T09:04:12.235Z,0
2023-02-18T09:05:12.200Z,0
2023-02-18T09:06:12.202Z,0
2023-02-18T09:07:12.225Z,0
2023-02-18T09:08:12.213Z,0
2023-02-18T09:09:12.211Z,0
2023-02-18T09:10:12.211Z,0
2023-02-18T09:11:12.230Z,0
2023-02-18T09:12:12.226Z,0
2023-02-18T09:13:12.220Z,0
2023-02-18T09:14:12.226Z,0
2023-02-18T09:15:12.230Z,0
2023-02-18T09:16:12.289Z,0
2023-02-18T09:17:12.216Z,0
2023-02-18T09:18:12.239Z,0
2023-02-18T09:19:12.218Z,0
2023-02-18T09:20:12.229Z,0
2023-02-18T09:21:12.247Z,0
2023-02-18T09:22:12.232Z,0
2023-02-18T09:23:12.269Z,0
2023-02-18T09:24:12.219Z,0
2023-02-18T09:25:12.224Z,0
2023-02-18T09:26:12.269Z,0
2023-02-18T09:27:12.231Z,0
2023-02-18T09:28:12.221Z,0
2023-02-18T09:29:12.229Z,0
2023-02-18T09:30:12.332Z,0
2023-02-18T09:31:12.767Z,0
2023-02-18T09:32:14.461Z,0
2023-02-18T09:33:12.246Z,0
2023-02-18T09:34:12.239Z,0
2023-02-18T09:35:12.234Z,0
2023-02-18T09:36:12.239Z,0
2023-02-18T09:37:12.256Z,0
2023-02-18T09:38:12.244Z,0
2023-02-18T09:39:12.260Z,0
2023-02-18T09:40:14.639Z,0
2023-02-18T09:41:12.234Z,0
2023-02-18T09:42:12.245Z,0
2023-02-18T09:43:12.252Z,0
2023-02-18T09:44:12.238Z,0
2023-02-18T09:45:12.267Z,3.4000000000000004
2023-02-18T09:46:12.315Z,2.9000000000000004
2023-02-18T09:47:12.245Z,0
2023-02-18T09:48:12.245Z,0
2023-02-18T09:49:12.244Z,0
2023-02-18T09:50:12.247Z,3.7
2023-02-18T09:51:12.252Z,0
2023-02-18T09:52:12.238Z,3.5
2023-02-18T09:53:12.231Z,3.2
2023-02-18T09:54:12.251Z,1.4000000000000001
2023-02-18T09:55:12.278Z,1.4000000000000001
2023-02-18T09:56:12.243Z,3.5
2023-02-18T09:57:12.260Z,2.6
2023-02-18T09:58:12.247Z,0
2023-02-18T09:59:12.259Z,0
2023-02-18T10:00:12.255Z,0
2023-02-18T10:01:12.457Z,0
2023-02-18T10:02:12.266Z,0
2023-02-18T10:03:12.253Z,0
2023-02-18T10:04:12.258Z,0
2023-02-18T10:05:12.262Z,0
2023-02-18T10:06:12.455Z,0
2023-02-18T10:07:12.254Z,0
2023-02-18T10:08:12.265Z,0
2023-02-18T10:09:12.251Z,0
2023-02-18T10:10:12.257Z,0
2023-02-18T10:11:12.282Z,0
2023-02-18T10:12:12.256Z,0
2023-02-18T10:13:12.293Z,1.3
2023-02-18T10:14:12.279Z,0
2023-02-18T10:15:12.259Z,0
2023-02-18T10:16:12.681Z,2.1
2023-02-18T10:17:12.269Z,3.4000000000000004
2023-02-18T10:18:12.265Z,3.6
2023-02-18T10:19:12.284Z,4
2023-02-18T10:20:12.272Z,2.8000000000000003
2023-02-18T10:21:12.270Z,3.3000000000000003
2023-02-18T10:22:14.667Z,4
2023-02-18T10:23:12.293Z,0.6000000000000001
2023-02-18T10:24:12.280Z,0
2023-02-18T10:25:12.271Z,2.8000000000000003
2023-02-18T10:26:12.290Z,0
2023-02-18T10:27:12.298Z,0
2023-02-18T10:28:12.274Z,0
2023-02-18T10:29:12.286Z,4.4
2023-02-18T10:30:12.311Z,3.1
2023-02-18T10:31:12.606Z,2.7
2023-02-18T10:32:12.413Z,0
2023-02-18T10:33:12.276Z,1.3
2023-02-18T10:34:12.282Z,0
2023-02-18T10:35:12.288Z,0
2023-02-18T10:36:12.283Z,0
2023-02-18T10:37:12.284Z,0
2023-02-18T10:38:12.294Z,0
2023-02-18T10:39:12.288Z,0
2023-02-18T10:40:12.280Z,0
2023-02-18T10:41:12.291Z,0
2023-02-18T10:42:12.283Z,0
2023-02-18T10:43:12.309Z,0
2023-02-18T10:44:12.304Z,0
2023-02-18T10:45:12.296Z,0
2023-02-18T10:46:13.687Z,0
2023-02-18T10:47:12.281Z,0
2023-02-18T10:48:12.301Z,0
2023-02-18T10:49:12.295Z,0
2023-02-18T10:50:12.292Z,0
2023-02-18T10:51:12.288Z,0
2023-02-18T10:52:12.283Z,1.2000000000000002
2023-02-18T10:53:12.296Z,0
2023-02-18T10:54:12.311Z,0
2023-02-18T10:55:12.300Z,0
2023-02-18T10:56:12.314Z,1.4000000000000001
2023-02-18T10:57:12.308Z,0
2023-02-18T10:58:12.311Z,0
2023-02-18T10:59:12.330Z,3.6
2023-02-18T11:00:12.296Z,4.5
2023-02-18T11:01:12.294Z,3.7
2023-02-18T11:02:12.304Z,1.4000000000000001
2023-02-18T11:03:12.301Z,1
2023-02-18T11:04:12.295Z,0
2023-02-18T11:05:12.299Z,0
2023-02-18T11:06:12.308Z,4.3
2023-02-18T11:07:12.303Z,5.9
2023-02-18T11:08:12.293Z,4.4
2023-02-18T11:09:12.304Z,5.300000000000001
2023-02-18T11:10:12.306Z,4.4
2023-02-18T11:11:12.297Z,0
2023-02-18T11:12:12.305Z,0
2023-02-18T11:13:12.315Z,0
2023-02-18T11:14:12.299Z,0
2023-02-18T11:15:12.323Z,0
2023-02-18T11:16:12.354Z,0
2023-02-18T11:17:12.299Z,0
2023-02-18T11:18:12.308Z,0
2023-02-18T11:19:12.317Z,0
2023-02-18T11:20:12.311Z,0
2023-02-18T11:21:12.314Z,0
2023-02-18T11:22:12.311Z,0
2023-02-18T11:23:12.325Z,0
2023-02-18T11:24:12.304Z,0
2023-02-18T11:25:12.309Z,0
2023-02-18T11:26:12.326Z,0
2023-02-18T11:27:14.509Z,0
2023-02-18T11:28:12.313Z,0
2023-02-18T11:29:12.308Z,0
2023-02-18T11:30:12.359Z,0
2023-02-18T11:31:12.628Z,0
2023-02-18T11:32:12.462Z,0
2023-02-18T11:33:12.308Z,0
2023-02-18T11:34:12.315Z,0
2023-02-18T11:35:12.307Z,0
2023-02-18T11:36:12.308Z,0
2023-02-18T11:37:12.297Z,0
2023-02-18T11:38:12.303Z,0
2023-02-18T11:39:12.321Z,0
2023-02-18T11:40:12.311Z,2
2023-02-18T11:41:12.325Z,0
2023-02-18T11:42:12.308Z,0
2023-02-18T11:43:12.338Z,0
2023-02-18T11:44:12.314Z,0
2023-02-18T11:45:12.316Z,0
2023-02-18T11:46:12.323Z,0
2023-02-18T11:47:12.362Z,0
2023-02-18T11:48:12.309Z,0
2023-02-18T11:49:12.305Z,0
2023-02-18T11:50:12.314Z,3.5
2023-02-18T11:51:12.524Z,0
2023-02-18T11:52:12.309Z,0
2023-02-18T11:53:12.318Z,0
2023-02-18T11:54:12.310Z,1.9000000000000001
2023-02-18T11:55:12.316Z,0
2023-02-18T11:56:12.324Z,0
2023-02-18T11:57:12.317Z,0
2023-02-18T11:58:12.320Z,0
2023-02-18T11:59:12.325Z,0
2023-02-18T12:00:12.320Z,0
2023-02-18T12:01:12.322Z,0
2023-02-18T12:02:12.352Z,0
2023-02-18T12:03:12.343Z,0
2023-02-18T12:04:12.318Z,0
2023-02-18T12:05:12.382Z,0
2023-02-18T12:06:12.316Z,0
2023-02-18T12:07:12.336Z,4.4
2023-02-18T12:08:12.335Z,4.2
2023-02-18T12:09:12.323Z,0.4
2023-02-18T12:10:12.334Z,0
2023-02-18T12:11:12.322Z,0
2023-02-18T12:12:12.337Z,0
2023-02-18T12:13:12.327Z,0
2023-02-18T12:14:12.332Z,0
2023-02-18T12:15:12.328Z,0
2023-02-18T12:16:12.367Z,0
2023-02-18T12:17:12.338Z,0
2023-02-18T12:18:12.337Z,0
2023-02-18T12:19:12.360Z,0
2023-02-18T12:20:12.366Z,3.4000000000000004
2023-02-18T12:21:12.337Z,2.9000000000000004
2023-02-18T12:22:12.341Z,1.9000000000000001
2023-02-18T12:23:12.343Z,1
2023-02-18T12:24:12.341Z,0
2023-02-18T12:25:12.357Z,3.1
2023-02-18T12:26:12.349Z,2.9000000000000004
2023-02-18T12:27:12.347Z,1.3
2023-02-18T12:28:12.354Z,1.5
2023-02-18T12:29:12.356Z,0
2023-02-18T12:30:12.502Z,0
2023-02-18T12:31:12.538Z,0
2023-02-18T12:32:12.405Z,0
2023-02-18T12:33:12.365Z,0
2023-02-18T12:34:12.355Z,0
2023-02-18T12:35:12.378Z,0
2023-02-18T12:36:12.360Z,0
2023-02-18T12:37:12.351Z,0
2023-02-18T12:38:12.358Z,0
2023-02-18T12:39:12.370Z,0
2023-02-18T12:40:12.417Z,0
2023-02-18T12:41:12.356Z,0
2023-02-18T12:42:12.362Z,0
2023-02-18T12:43:12.355Z,0
2023-02-18T12:44:12.356Z,0
2023-02-18T12:45:12.358Z,0
2023-02-18T12:46:12.426Z,0
2023-02-18T12:47:12.375Z,0
2023-02-18T12:48:12.359Z,0
2023-02-18T12:49:12.376Z,0
2023-02-18T12:50:12.395Z,4.800000000000001
2023-02-18T12:51:12.392Z,2.9000000000000004
2023-02-18T12:52:12.385Z,3.4000000000000004
2023-02-18T12:53:12.360Z,0.7000000000000001
2023-02-18T12:54:12.369Z,0
2023-02-18T12:55:12.379Z,0
2023-02-18T12:56:12.361Z,0
2023-02-18T12:57:12.367Z,0
2023-02-18T12:58:12.359Z,0
2023-02-18T12:59:12.381Z,1.9000000000000001
2023-02-18T13:00:12.390Z,3.9000000000000004
2023-02-18T13:01:12.451Z,5.4
2023-02-18T13:02:12.375Z,1.7000000000000002
2023-02-18T13:03:12.410Z,8.3
2023-02-18T13:04:12.366Z,2.3000000000000003
2023-02-18T13:05:12.363Z,0
2023-02-18T13:06:12.376Z,0.8
2023-02-18T13:07:12.392Z,6.4
2023-02-18T13:08:12.372Z,3
2023-02-18T13:09:12.383Z,0
2023-02-18T13:10:12.459Z,0
2023-02-18T13:11:12.369Z,0
2023-02-18T13:12:12.389Z,0
2023-02-18T13:13:12.374Z,0
2023-02-18T13:14:12.395Z,0
2023-02-18T13:15:12.380Z,0
2023-02-18T13:16:12.502Z,0
2023-02-18T13:17:12.379Z,0
2023-02-18T13:18:12.375Z,0
2023-02-18T13:19:12.377Z,3.1
2023-02-18T13:20:12.393Z,4.5
2023-02-18T13:21:12.386Z,3.3000000000000003
2023-02-18T13:22:12.384Z,0
2023-02-18T13:23:12.416Z,1.8
2023-02-18T13:24:12.388Z,0
2023-02-18T13:25:12.396Z,0
2023-02-18T13:26:12.550Z,0
2023-02-18T13:27:12.386Z,0
2023-02-18T13:28:12.388Z,0
2023-02-18T13:29:12.387Z,0
2023-02-18T13:30:12.430Z,0
2023-02-18T13:31:12.667Z,0
2023-02-18T13:32:12.392Z,0
2023-02-18T13:33:12.390Z,3.4000000000000004
2023-02-18T13:34:12.396Z,1.9000000000000001
2023-02-18T13:35:12.387Z,1.2000000000000002
2023-02-18T13:36:12.383Z,0
2023-02-18T13:37:12.394Z,0
2023-02-18T13:38:12.397Z,0
2023-02-18T13:39:12.527Z,0
2023-02-18T13:40:12.384Z,0
2023-02-18T13:41:12.396Z,0
2023-02-18T13:42:12.412Z,0
2023-02-18T13:43:12.412Z,0
2023-02-18T13:44:12.396Z,2.3000000000000003
2023-02-18T13:45:12.394Z,3.1
2023-02-18T13:46:12.431Z,0
2023-02-18T13:47:12.399Z,2.2
2023-02-18T13:48:12.389Z,1.6
2023-02-18T13:49:12.442Z,0
2023-02-18T13:50:12.399Z,0.7000000000000001
2023-02-18T13:51:12.399Z,3.8000000000000003
2023-02-18T13:52:12.394Z,3.4000000000000004
2023-02-18T13:53:12.382Z,0
2023-02-18T13:54:12.400Z,0
2023-02-18T13:55:12.417Z,5
2023-02-18T13:56:12.391Z,2.9000000000000004
2023-02-18T13:57:12.403Z,1.8
2023-02-18T13:58:12.397Z,0
2023-02-18T13:59:12.393Z,0
2023-02-18T14:00:12.401Z,3.5
2023-02-18T14:01:12.402Z,2.6
2023-02-18T14:02:12.499Z,3
2023-02-18T14:03:12.426Z,5
2023-02-18T14:04:12.410Z,4.9
2023-02-18T14:05:12.410Z,5.9
2023-02-18T14:06:12.406Z,3.2
2023-02-18T14:07:12.411Z,0
2023-02-18T14:08:12.413Z,0
2023-02-18T14:09:12.407Z,0
2023-02-18T14:10:12.412Z,3.4000000000000004
2023-02-18T14:11:12.460Z,2.9000000000000004
2023-02-18T14:12:12.397Z,3.3000000000000003
2023-02-18T14:13:12.404Z,0
2023-02-18T14:14:12.419Z,0
2023-02-18T14:15:12.399Z,0
2023-02-18T14:16:12.485Z,1.3
2023-02-18T14:17:12.405Z,0
2023-02-18T14:18:12.405Z,0
2023-02-18T14:19:12.418Z,0
2023-02-18T14:20:12.416Z,0